Quincy, CA (95971)

1:28 AM PDT on September 20, 2014 (GMT -0700)
QUINCY RANGER DISTRICT | Change Station
CLOSE
Current Station
Personal Weather Station
Location: Quincy, CA
Elevation: 3553 ft
Nearby Weather Stations

Elev 3553 ft 39.97 °N, 120.94 °W | Updated 40 minutes ago

Clear
Clear
59.0 °F
Feels Like 59.0 °F
N
1.0
Wind Variable Wind from WNW

Today
High -- | Low -- °F
--% Chance of Precip.
Yesterday
High -- | Low -- °F
Precip. -- in
6:49 AM 7:03 PM
Waning Crescent, 13% visible
Pressure 29.79 in
Visibility 10.0 miles
Clouds Clear
Dew Point 42 °F
Humidity 53%
Rainfall -999.00 in
Snow Depth Not available.
UV 0 out of 12
Pollen 6.60 out of 12
Air Quality Not available.
Flu Activity Not available.
METAR KBLU 200752Z AUTO 05003KT 10SM CLR 20/02 A3010 RMK AO2 SLP086 T02000017 402610144

More Conditions Fewer Conditions

Pressure 29.79 in
Visibility 10.0 miles
Clouds Clear
Dew Point 42 °F
Humidity 53%
Rainfall -999.00 in
Snow Depth Not available.
UV 0 out of 12
Pollen 6.60 out of 12
Air Quality Not available.
Flu Activity Not available.
METAR KBLU 200752Z AUTO 05003KT 10SM CLR 20/02 A3010 RMK AO2 SLP086 T02000017 402610144

More Conditions Fewer Conditions

10-Day Weather Forecast

Almanac

Astronomy

Sep. 20, 2014 Rise Set
Actual Time 6:49 AM PDT 7:03 PM PDT
Civil Twilight 6:22 AM PDT 7:30 PM PDT
Nautical Twilight 5:50 AM PDT 8:02 PM PDT
Astronomical Twilight 5:18 AM PDT 8:34 PM PDT
Moon 3:33 AM PDT 5:10 PM PDT
Length of Visible Light 13h 08m
Length of Day
12h 14m
Tomorrow will be 2m 36s shorter.
Waning Crescent, 13% of the Moon is Illuminated
Today
Waning Crescent
Sep 24
New
Oct 1
First Quarter
Oct 8
Full
Oct 15
Last Quarter

Today's Extremes

State Highs State Lows

Community

WunderPhotos

Upload Photos

1,754,793 photos uploaded!

WunderBlogs® & News

Nearby

Snow Depth

Station Depth Elevation
Echo Peak 0 in 7800 ft
Heavenly Valley 0 in 8850 ft
Spratt Creek 1 in 6200 ft
Tahoe City Cross 0 in 6750 ft
Leavitt Lake 1 in 9400 ft

Earthquake Activity

City Distance Mag. Time & Date
The Geysers, California 128 miles 2.5 11:29 PM PDT
2014-09-17
Lakeview, Oregon 148 miles 3.0 10:14 AM PDT
2014-09-17
Minimum magnitude displayed is 2.5.

Coastal Water Temperatures

Place Temperature
No Stations Reporting

Nearby Weather Stations